PWSweather.com
Personal Weather Stations
Station Observations
TURNER1
South Turner, Turner, ME 04282

South TurnerTurner, ME 04282

Lat: 44.193235, Lon: -70.264886

Elevation: 500

Station Type: Davis Vantage Pro

www.southturnermaineweather.com

High Low Average
Temperature 65.5°F18.6°C 44.3°F6.8°C 58.2°F14.6°C
Dew Point 64.0°F17.8°C 38.4°F3.6°C 48.7°F9.3°C
Winds 5.8 mph 9.3 kmh Calm Calm 2.0 mph W3.2 kmh W
Wind Gusts 12.7 mph20.4 kmh -- 4.0 mph6.4 kmh
Humidity 100% 39% 73%
Pressure 30.35 in1027.8 mb 29.99 in1015.6 mb -
Precipitation 0.00 in0.0 mm - -
Hour Temp Dew Point Humidity Winds Wind Gusts Pressure Precip Precip Rate Daily Precip Total
12:00 AM 62.7°F17.1°C 62.7°F17.1°C 100% 1.2 mph N1.9 kmh N 3.5 mph5.6 kmh 29.99 in1015.6 mb - 0.00 in0.0 mm 0.00 in0.0 mm
12:30 AM 63.5°F17.5°C 63.5°F17.5°C 100% 1.2 mph NNW1.9 kmh NNW 1.2 mph1.9 kmh 30.00 in1015.9 mb - 0.00 in0.0 mm 0.00 in0.0 mm
01:00 AM 63.7°F17.6°C 63.7°F17.6°C 100% 1.2 mph N1.9 kmh N 2.3 mph3.7 kmh 30.00 in1015.9 mb - 0.00 in0.0 mm 0.00 in0.0 mm
01:30 AM 64.0°F17.8°C 64.0°F17.8°C 100% Calm Calm 2.3 mph3.7 kmh 30.00 in1015.9 mb - 0.00 in0.0 mm 0.00 in0.0 mm
02:00 AM 64.0°F17.8°C 64.0°F17.8°C 100% 1.2 mph W1.9 kmh W 4.6 mph7.4 kmh 30.00 in1015.9 mb - 0.00 in0.0 mm 0.00 in0.0 mm
02:30 AM 62.9°F17.2°C 62.3°F16.8°C 98% 3.5 mph NW5.6 kmh NW 11.5 mph18.5 kmh 30.02 in1016.6 mb - 0.00 in0.0 mm 0.00 in0.0 mm
03:00 AM 62.6°F17.0°C 61.7°F16.5°C 97% 1.2 mph NW1.9 kmh NW 3.5 mph5.6 kmh 30.04 in1017.3 mb - 0.00 in0.0 mm 0.00 in0.0 mm
03:30 AM 61.8°F16.6°C 60.6°F15.9°C 96% 2.3 mph NW3.7 kmh NW 3.5 mph5.6 kmh 30.05 in1017.6 mb - 0.00 in0.0 mm 0.00 in0.0 mm
04:00 AM 61.8°F16.6°C 59.8°F15.4°C 93% 1.2 mph W1.9 kmh W 2.3 mph3.7 kmh 30.07 in1018.3 mb - 0.00 in0.0 mm 0.00 in0.0 mm
04:30 AM 60.7°F15.9°C 59.0°F15.0°C 94% 1.2 mph WSW1.9 kmh WSW 2.3 mph3.7 kmh 30.10 in1019.3 mb - 0.00 in0.0 mm 0.00 in0.0 mm
05:00 AM 59.5°F15.3°C 57.8°F14.3°C 94% Calm Calm 2.3 mph3.7 kmh 30.12 in1020.0 mb - 0.00 in0.0 mm 0.00 in0.0 mm
05:30 AM 59.5°F15.3°C 54.9°F12.7°C 85% 4.6 mph NNW7.4 kmh NNW 5.8 mph9.3 kmh 30.15 in1021.0 mb - 0.00 in0.0 mm 0.00 in0.0 mm
06:00 AM 58.7°F14.8°C 54.2°F12.3°C 85% 4.6 mph NW7.4 kmh NW 3.5 mph5.6 kmh 30.16 in1021.3 mb - 0.00 in0.0 mm 0.00 in0.0 mm
06:30 AM 59.6°F15.3°C 54.8°F12.7°C 84% Calm Calm 1.2 mph1.9 kmh 30.17 in1021.7 mb - 0.00 in0.0 mm 0.00 in0.0 mm
07:00 AM 59.6°F15.3°C 53.8°F12.1°C 81% 3.5 mph NW5.6 kmh NW 3.5 mph5.6 kmh 30.18 in1022.0 mb - 0.00 in0.0 mm 0.00 in0.0 mm
07:30 AM 59.6°F15.3°C 53.1°F11.7°C 79% 4.6 mph NW7.4 kmh NW 6.9 mph11.1 kmh 30.19 in1022.4 mb - 0.00 in0.0 mm 0.00 in0.0 mm
08:00 AM 59.7°F15.4°C 51.0°F10.6°C 73% 3.5 mph WSW5.6 kmh WSW 12.7 mph20.4 kmh 30.20 in1022.7 mb - 0.00 in0.0 mm 0.00 in0.0 mm
08:30 AM 59.5°F15.3°C 48.1°F8.9°C 66% 2.3 mph WSW3.7 kmh WSW 3.5 mph5.6 kmh 30.23 in1023.7 mb - 0.00 in0.0 mm 0.00 in0.0 mm
09:00 AM 58.7°F14.8°C 47.0°F8.3°C 65% 3.5 mph WNW5.6 kmh WNW 5.8 mph9.3 kmh 30.23 in1023.7 mb - 0.00 in0.0 mm 0.00 in0.0 mm
09:30 AM 58.9°F14.9°C 46.7°F8.2°C 64% 2.3 mph W3.7 kmh W 3.5 mph5.6 kmh 30.24 in1024.0 mb - 0.00 in0.0 mm 0.00 in0.0 mm
10:00 AM 60.5°F15.8°C 47.0°F8.3°C 61% 1.2 mph WSW1.9 kmh WSW 6.9 mph11.1 kmh 30.23 in1023.7 mb - 0.00 in0.0 mm 0.00 in0.0 mm
10:30 AM 61.3°F16.3°C 44.0°F6.7°C 53% 4.6 mph NW7.4 kmh NW 3.5 mph5.6 kmh 30.24 in1024.0 mb - 0.00 in0.0 mm 0.00 in0.0 mm
11:00 AM 63.4°F17.4°C 45.5°F7.5°C 52% 2.3 mph NW3.7 kmh NW 3.5 mph5.6 kmh 30.24 in1024.0 mb - 0.00 in0.0 mm 0.00 in0.0 mm
11:30 AM 63.3°F17.4°C 44.3°F6.8°C 50% 2.3 mph NW3.7 kmh NW 3.5 mph5.6 kmh 30.24 in1024.0 mb - 0.00 in0.0 mm 0.00 in0.0 mm
12:00 PM 64.8°F18.2°C 44.1°F6.7°C 47% 2.3 mph NW3.7 kmh NW 4.6 mph7.4 kmh 30.24 in1024.0 mb - 0.00 in0.0 mm 0.00 in0.0 mm
12:30 PM 64.8°F18.2°C 42.9°F6.1°C 45% 2.3 mph N3.7 kmh N 6.9 mph11.1 kmh 30.23 in1023.7 mb - 0.00 in0.0 mm 0.00 in0.0 mm
01:00 PM 63.7°F17.6°C 40.2°F4.6°C 42% 4.6 mph NW7.4 kmh NW 9.2 mph14.8 kmh 30.23 in1023.7 mb - 0.00 in0.0 mm 0.00 in0.0 mm
01:30 PM 63.9°F17.7°C 38.4°F3.6°C 39% 5.8 mph NW9.3 kmh NW 8.1 mph13.0 kmh 30.24 in1024.0 mb - 0.00 in0.0 mm 0.00 in0.0 mm
02:00 PM 64.8°F18.2°C 41.8°F5.4°C 43% 2.3 mph WNW3.7 kmh WNW 4.6 mph7.4 kmh 30.24 in1024.0 mb - 0.00 in0.0 mm 0.00 in0.0 mm
02:30 PM 65.5°F18.6°C 43.0°F6.1°C 44% 1.2 mph WSW1.9 kmh WSW 2.3 mph3.7 kmh 30.24 in1024.0 mb - 0.00 in0.0 mm 0.00 in0.0 mm
03:00 PM 63.7°F17.6°C 41.4°F5.2°C 44% 1.2 mph S1.9 kmh S 3.5 mph5.6 kmh 30.23 in1023.7 mb - 0.00 in0.0 mm 0.00 in0.0 mm
03:30 PM 63.4°F17.4°C 42.8°F6.0°C 47% 1.2 mph NW1.9 kmh NW 3.5 mph5.6 kmh 30.25 in1024.4 mb - 0.00 in0.0 mm 0.00 in0.0 mm
04:00 PM 61.2°F16.2°C 43.4°F6.3°C 52% 1.2 mph WNW1.9 kmh WNW 2.3 mph3.7 kmh 30.25 in1024.4 mb - 0.00 in0.0 mm 0.00 in0.0 mm
04:30 PM 58.9°F14.9°C 44.6°F7.0°C 59% Calm Calm 2.3 mph3.7 kmh 30.25 in1024.4 mb - 0.00 in0.0 mm 0.00 in0.0 mm
05:00 PM 55.7°F13.2°C 46.8°F8.2°C 72% Calm Calm 1.2 mph1.9 kmh 30.25 in1024.4 mb - 0.00 in0.0 mm 0.00 in0.0 mm
05:30 PM 53.2°F11.8°C 46.2°F7.9°C 77% 1.2 mph SSW1.9 kmh SSW 2.3 mph3.7 kmh 30.25 in1024.4 mb - 0.00 in0.0 mm 0.00 in0.0 mm
06:00 PM 51.9°F11.1°C 44.2°F6.8°C 75% 1.2 mph SE1.9 kmh SE 2.3 mph3.7 kmh 30.27 in1025.1 mb - 0.00 in0.0 mm 0.00 in0.0 mm
06:30 PM 50.8°F10.4°C 42.5°F5.8°C 73% 1.2 mph WNW1.9 kmh WNW 3.5 mph5.6 kmh 30.28 in1025.4 mb - 0.00 in0.0 mm 0.00 in0.0 mm
07:00 PM 50.1°F10.1°C 43.2°F6.2°C 77% Calm Calm 1.2 mph1.9 kmh 30.30 in1026.1 mb - 0.00 in0.0 mm 0.00 in0.0 mm
07:30 PM 50.7°F10.4°C 40.9°F4.9°C 69% Calm Calm -- 30.31 in1026.4 mb - 0.00 in0.0 mm 0.00 in0.0 mm
08:00 PM 50.5°F10.3°C 40.3°F4.6°C 68% 2.3 mph NNW3.7 kmh NNW 4.6 mph7.4 kmh 30.32 in1026.8 mb - 0.00 in0.0 mm 0.00 in0.0 mm
08:30 PM 50.1°F10.1°C 41.1°F5.1°C 71% 1.2 mph NNW1.9 kmh NNW 3.5 mph5.6 kmh 30.33 in1027.1 mb - 0.00 in0.0 mm 0.00 in0.0 mm
09:00 PM 49.1°F9.5°C 41.2°F5.1°C 74% 1.2 mph NW1.9 kmh NW 2.3 mph3.7 kmh 30.33 in1027.1 mb - 0.00 in0.0 mm 0.00 in0.0 mm
09:30 PM 47.6°F8.7°C 40.7°F4.8°C 77% 1.2 mph NNW1.9 kmh NNW 1.2 mph1.9 kmh 30.34 in1027.4 mb - 0.00 in0.0 mm 0.00 in0.0 mm
10:00 PM 46.4°F8.0°C 40.9°F4.9°C 81% Calm Calm -- 30.35 in1027.8 mb - 0.00 in0.0 mm 0.00 in0.0 mm
10:30 PM 45.5°F7.5°C 41.6°F5.3°C 86% Calm Calm 2.3 mph3.7 kmh 30.35 in1027.8 mb - 0.00 in0.0 mm 0.00 in0.0 mm
11:00 PM 44.9°F7.2°C 41.0°F5.0°C 86% 1.2 mph W1.9 kmh W 2.3 mph3.7 kmh 30.35 in1027.8 mb - 0.00 in0.0 mm 0.00 in0.0 mm
11:30 PM 44.3°F6.8°C 40.6°F4.8°C 87% Calm Calm -- 30.35 in1027.8 mb - 0.00 in0.0 mm 0.00 in0.0 mm